sensor_id;sensor_type;location;lat;lon;timestamp;P1;durP1;ratioP1;P2;durP2;ratioP2
73938;SDS011;62291;47.554;8.504;2022-10-23T00:01:20;217.98;;;19.10;;
73938;SDS011;62291;47.554;8.504;2022-10-23T00:03:55;268.10;;;23.92;;
73938;SDS011;62291;47.554;8.504;2022-10-23T00:06:26;119.68;;;13.25;;
73938;SDS011;62291;47.554;8.504;2022-10-23T00:08:53;193.73;;;17.63;;
73938;SDS011;62291;47.554;8.504;2022-10-23T00:11:21;349.50;;;23.30;;
73938;SDS011;62291;47.554;8.504;2022-10-23T00:13:49;362.88;;;24.45;;
73938;SDS011;62291;47.554;8.504;2022-10-23T00:16:17;332.65;;;24.45;;
73938;SDS011;62291;47.554;8.504;2022-10-23T00:18:43;306.98;;;24.35;;
73938;SDS011;62291;47.554;8.504;2022-10-23T00:21:10;236.38;;;20.35;;
73938;SDS011;62291;47.554;8.504;2022-10-23T00:23:38;247.35;;;18.25;;
73938;SDS011;62291;47.554;8.504;2022-10-23T00:26:04;124.20;;;18.08;;
73938;SDS011;62291;47.554;8.504;2022-10-23T00:28:32;66.28;;;15.68;;
73938;SDS011;62291;47.554;8.504;2022-10-23T00:31:00;69.78;;;13.48;;
73938;SDS011;62291;47.554;8.504;2022-10-23T00:33:27;78.03;;;14.68;;
73938;SDS011;62291;47.554;8.504;2022-10-23T00:35:53;259.70;;;20.77;;
73938;SDS011;62291;47.554;8.504;2022-10-23T00:38:19;27.92;;;10.93;;
73938;SDS011;62291;47.554;8.504;2022-10-23T00:40:44;32.38;;;12.85;;
73938;SDS011;62291;47.554;8.504;2022-10-23T00:43:18;20.25;;;10.82;;
73938;SDS011;62291;47.554;8.504;2022-10-23T00:45:46;9.73;;;6.32;;
73938;SDS011;62291;47.554;8.504;2022-10-23T00:48:12;44.40;;;10.15;;
73938;SDS011;62291;47.554;8.504;2022-10-23T00:50:38;26.40;;;9.50;;
73938;SDS011;62291;47.554;8.504;2022-10-23T00:53:05;58.20;;;12.98;;
73938;SDS011;62291;47.554;8.504;2022-10-23T00:55:32;18.13;;;10.10;;
73938;SDS011;62291;47.554;8.504;2022-10-23T00:57:59;24.27;;;11.60;;
73938;SDS011;62291;47.554;8.504;2022-10-23T01:00:26;107.82;;;15.98;;
73938;SDS011;62291;47.554;8.504;2022-10-23T01:02:55;196.95;;;21.17;;
73938;SDS011;62291;47.554;8.504;2022-10-23T01:05:24;544.50;;;29.48;;
73938;SDS011;62291;47.554;8.504;2022-10-23T01:08:09;471.48;;;25.60;;
73938;SDS011;62291;47.554;8.504;2022-10-23T01:10:53;309.70;;;21.15;;
73938;SDS011;62291;47.554;8.504;2022-10-23T01:13:46;180.73;;;15.95;;
73938;SDS011;62291;47.554;8.504;2022-10-23T01:16:22;281.38;;;22.27;;
73938;SDS011;62291;47.554;8.504;2022-10-23T01:19:07;553.85;;;33.03;;
73938;SDS011;62291;47.554;8.504;2022-10-23T01:22:00;612.10;;;36.15;;
73938;SDS011;62291;47.554;8.504;2022-10-23T01:27:26;277.35;;;20.08;;
73938;SDS011;62291;47.554;8.504;2022-10-23T01:35:33;317.55;;;25.23;;
73938;SDS011;62291;47.554;8.504;2022-10-23T01:38:13;214.20;;;18.73;;
73938;SDS011;62291;47.554;8.504;2022-10-23T01:40:49;427.23;;;28.83;;
73938;SDS011;62291;47.554;8.504;2022-10-23T01:43:28;293.23;;;21.33;;
73938;SDS011;62291;47.554;8.504;2022-10-23T01:46:00;395.48;;;24.88;;
73938;SDS011;62291;47.554;8.504;2022-10-23T01:48:29;404.92;;;28.15;;
73938;SDS011;62291;47.554;8.504;2022-10-23T01:50:59;463.88;;;31.23;;
73938;SDS011;62291;47.554;8.504;2022-10-23T01:53:29;452.30;;;31.02;;
73938;SDS011;62291;47.554;8.504;2022-10-23T01:55:57;183.93;;;22.50;;
73938;SDS011;62291;47.554;8.504;2022-10-23T01:58:25;176.20;;;21.65;;
73938;SDS011;62291;47.554;8.504;2022-10-23T02:00:54;82.78;;;19.23;;
73938;SDS011;62291;47.554;8.504;2022-10-23T02:03:25;269.08;;;25.83;;
73938;SDS011;62291;47.554;8.504;2022-10-23T02:05:53;112.53;;;18.15;;
73938;SDS011;62291;47.554;8.504;2022-10-23T02:08:18;311.17;;;27.55;;
73938;SDS011;62291;47.554;8.504;2022-10-23T02:13:37;208.65;;;22.33;;
73938;SDS011;62291;47.554;8.504;2022-10-23T02:21:13;391.83;;;35.75;;
73938;SDS011;62291;47.554;8.504;2022-10-23T02:26:31;178.82;;;22.95;;
73938;SDS011;62291;47.554;8.504;2022-10-23T02:29:03;137.27;;;21.25;;
73938;SDS011;62291;47.554;8.504;2022-10-23T02:31:34;116.25;;;21.73;;
73938;SDS011;62291;47.554;8.504;2022-10-23T02:34:00;414.95;;;29.48;;
73938;SDS011;62291;47.554;8.504;2022-10-23T02:36:26;237.02;;;24.42;;
73938;SDS011;62291;47.554;8.504;2022-10-23T02:38:51;438.73;;;35.45;;
73938;SDS011;62291;47.554;8.504;2022-10-23T02:46:30;307.15;;;29.90;;
73938;SDS011;62291;47.554;8.504;2022-10-23T02:49:17;406.58;;;33.75;;
73938;SDS011;62291;47.554;8.504;2022-10-23T02:55:28;402.70;;;35.33;;
73938;SDS011;62291;47.554;8.504;2022-10-23T03:00:09;502.17;;;42.33;;
73938;SDS011;62291;47.554;8.504;2022-10-23T03:05:16;338.42;;;35.25;;
73938;SDS011;62291;47.554;8.504;2022-10-23T03:07:45;294.98;;;31.80;;
73938;SDS011;62291;47.554;8.504;2022-10-23T03:10:12;553.33;;;41.95;;
73938;SDS011;62291;47.554;8.504;2022-10-23T03:12:38;241.32;;;27.75;;
73938;SDS011;62291;47.554;8.504;2022-10-23T03:15:05;575.70;;;45.25;;
73938;SDS011;62291;47.554;8.504;2022-10-23T03:17:31;265.63;;;27.90;;
73938;SDS011;62291;47.554;8.504;2022-10-23T03:19:56;313.92;;;33.95;;
73938;SDS011;62291;47.554;8.504;2022-10-23T03:22:23;365.45;;;36.92;;
73938;SDS011;62291;47.554;8.504;2022-10-23T03:24:48;242.20;;;29.13;;
73938;SDS011;62291;47.554;8.504;2022-10-23T03:27:14;483.38;;;41.03;;
73938;SDS011;62291;47.554;8.504;2022-10-23T03:29:40;457.90;;;42.85;;
73938;SDS011;62291;47.554;8.504;2022-10-23T03:32:06;220.15;;;29.27;;
73938;SDS011;62291;47.554;8.504;2022-10-23T03:34:33;443.40;;;42.95;;
73938;SDS011;62291;47.554;8.504;2022-10-23T03:36:59;801.90;;;50.30;;
73938;SDS011;62291;47.554;8.504;2022-10-23T03:39:25;364.42;;;36.80;;
73938;SDS011;62291;47.554;8.504;2022-10-23T03:41:50;427.60;;;41.80;;
73938;SDS011;62291;47.554;8.504;2022-10-23T03:44:16;459.25;;;38.45;;
73938;SDS011;62291;47.554;8.504;2022-10-23T03:46:42;435.48;;;39.83;;
73938;SDS011;62291;47.554;8.504;2022-10-23T03:49:08;375.35;;;35.45;;
73938;SDS011;62291;47.554;8.504;2022-10-23T03:51:34;602.78;;;46.33;;
73938;SDS011;62291;47.554;8.504;2022-10-23T03:54:00;338.77;;;30.83;;
73938;SDS011;62291;47.554;8.504;2022-10-23T03:56:25;358.55;;;36.53;;
73938;SDS011;62291;47.554;8.504;2022-10-23T03:58:51;526.88;;;44.00;;
73938;SDS011;62291;47.554;8.504;2022-10-23T04:01:17;330.00;;;35.35;;
73938;SDS011;62291;47.554;8.504;2022-10-23T04:03:43;278.52;;;31.17;;
73938;SDS011;62291;47.554;8.504;2022-10-23T04:06:09;207.60;;;32.75;;
73938;SDS011;62291;47.554;8.504;2022-10-23T04:08:34;734.85;;;47.50;;
73938;SDS011;62291;47.554;8.504;2022-10-23T04:11:00;764.30;;;51.78;;
73938;SDS011;62291;47.554;8.504;2022-10-23T04:13:26;364.23;;;36.38;;
73938;SDS011;62291;47.554;8.504;2022-10-23T04:15:51;373.58;;;37.42;;
73938;SDS011;62291;47.554;8.504;2022-10-23T04:18:17;357.40;;;38.47;;
73938;SDS011;62291;47.554;8.504;2022-10-23T04:20:45;443.80;;;39.78;;
73938;SDS011;62291;47.554;8.504;2022-10-23T04:23:13;428.50;;;39.88;;
73938;SDS011;62291;47.554;8.504;2022-10-23T04:25:39;487.40;;;42.95;;
73938;SDS011;62291;47.554;8.504;2022-10-23T04:28:04;297.95;;;34.92;;
73938;SDS011;62291;47.554;8.504;2022-10-23T04:30:30;356.58;;;36.10;;
73938;SDS011;62291;47.554;8.504;2022-10-23T04:32:56;381.40;;;37.88;;
73938;SDS011;62291;47.554;8.504;2022-10-23T04:35:22;271.60;;;36.45;;
73938;SDS011;62291;47.554;8.504;2022-10-23T04:37:47;341.90;;;34.25;;
73938;SDS011;62291;47.554;8.504;2022-10-23T04:40:13;561.38;;;41.30;;
73938;SDS011;62291;47.554;8.504;2022-10-23T04:42:39;415.92;;;37.67;;
73938;SDS011;62291;47.554;8.504;2022-10-23T04:45:05;515.35;;;40.00;;
73938;SDS011;62291;47.554;8.504;2022-10-23T04:47:31;904.60;;;53.20;;
73938;SDS011;62291;47.554;8.504;2022-10-23T04:49:57;586.92;;;42.22;;
73938;SDS011;62291;47.554;8.504;2022-10-23T04:52:22;398.48;;;37.05;;
73938;SDS011;62291;47.554;8.504;2022-10-23T04:54:48;605.08;;;42.80;;
73938;SDS011;62291;47.554;8.504;2022-10-23T04:57:14;488.05;;;36.05;;
73938;SDS011;62291;47.554;8.504;2022-10-23T04:59:39;467.98;;;38.80;;
73938;SDS011;62291;47.554;8.504;2022-10-23T05:02:05;626.80;;;37.35;;
73938;SDS011;62291;47.554;8.504;2022-10-23T05:04:31;770.30;;;53.08;;
73938;SDS011;62291;47.554;8.504;2022-10-23T05:06:57;727.85;;;52.25;;
73938;SDS011;62291;47.554;8.504;2022-10-23T05:09:22;575.50;;;46.55;;
73938;SDS011;62291;47.554;8.504;2022-10-23T05:11:48;374.33;;;36.80;;
73938;SDS011;62291;47.554;8.504;2022-10-23T05:14:14;869.45;;;56.63;;
73938;SDS011;62291;47.554;8.504;2022-10-23T05:16:50;766.97;;;57.90;;
73938;SDS011;62291;47.554;8.504;2022-10-23T05:19:23;543.67;;;44.58;;
73938;SDS011;62291;47.554;8.504;2022-10-23T05:21:53;403.80;;;43.38;;
73938;SDS011;62291;47.554;8.504;2022-10-23T05:24:23;456.40;;;44.58;;
73938;SDS011;62291;47.554;8.504;2022-10-23T05:26:50;270.73;;;34.63;;
73938;SDS011;62291;47.554;8.504;2022-10-23T05:29:20;797.58;;;56.35;;
73938;SDS011;62291;47.554;8.504;2022-10-23T05:31:46;896.47;;;63.30;;
73938;SDS011;62291;47.554;8.504;2022-10-23T05:34:14;603.95;;;57.20;;
73938;SDS011;62291;47.554;8.504;2022-10-23T05:36:41;583.13;;;51.53;;
73938;SDS011;62291;47.554;8.504;2022-10-23T05:39:07;540.00;;;49.17;;
73938;SDS011;62291;47.554;8.504;2022-10-23T05:41:33;650.00;;;56.15;;
73938;SDS011;62291;47.554;8.504;2022-10-23T05:43:58;439.23;;;41.97;;
73938;SDS011;62291;47.554;8.504;2022-10-23T05:46:24;662.92;;;55.78;;
73938;SDS011;62291;47.554;8.504;2022-10-23T05:48:52;374.30;;;41.78;;
73938;SDS011;62291;47.554;8.504;2022-10-23T05:51:18;482.27;;;46.03;;
73938;SDS011;62291;47.554;8.504;2022-10-23T05:53:49;426.92;;;47.85;;
73938;SDS011;62291;47.554;8.504;2022-10-23T05:56:16;383.35;;;38.25;;
73938;SDS011;62291;47.554;8.504;2022-10-23T05:58:43;596.72;;;64.38;;
73938;SDS011;62291;47.554;8.504;2022-10-23T06:01:09;900.42;;;60.90;;
73938;SDS011;62291;47.554;8.504;2022-10-23T06:03:37;834.28;;;59.38;;
73938;SDS011;62291;47.554;8.504;2022-10-23T06:06:04;487.35;;;47.60;;
73938;SDS011;62291;47.554;8.504;2022-10-23T06:08:31;744.25;;;62.25;;
73938;SDS011;62291;47.554;8.504;2022-10-23T06:11:03;1031.10;;;69.07;;
73938;SDS011;62291;47.554;8.504;2022-10-23T06:13:32;806.35;;;60.78;;
73938;SDS011;62291;47.554;8.504;2022-10-23T06:15:58;627.50;;;53.35;;
73938;SDS011;62291;47.554;8.504;2022-10-23T06:18:24;597.80;;;49.90;;
73938;SDS011;62291;47.554;8.504;2022-10-23T06:20:50;843.05;;;57.30;;
73938;SDS011;62291;47.554;8.504;2022-10-23T06:23:15;525.67;;;45.72;;
73938;SDS011;62291;47.554;8.504;2022-10-23T06:25:41;663.67;;;55.40;;
73938;SDS011;62291;47.554;8.504;2022-10-23T06:28:07;549.28;;;49.85;;
73938;SDS011;62291;47.554;8.504;2022-10-23T06:30:32;825.22;;;57.83;;
73938;SDS011;62291;47.554;8.504;2022-10-23T06:32:58;484.95;;;44.25;;
73938;SDS011;62291;47.554;8.504;2022-10-23T06:35:24;480.25;;;46.63;;
73938;SDS011;62291;47.554;8.504;2022-10-23T06:37:49;449.58;;;44.28;;
73938;SDS011;62291;47.554;8.504;2022-10-23T06:40:15;472.08;;;44.92;;
73938;SDS011;62291;47.554;8.504;2022-10-23T06:42:41;489.17;;;44.60;;
73938;SDS011;62291;47.554;8.504;2022-10-23T06:45:06;391.27;;;42.38;;
73938;SDS011;62291;47.554;8.504;2022-10-23T06:47:33;456.40;;;46.33;;
73938;SDS011;62291;47.554;8.504;2022-10-23T06:49:58;428.50;;;44.83;;
73938;SDS011;62291;47.554;8.504;2022-10-23T06:52:24;390.40;;;42.42;;
73938;SDS011;62291;47.554;8.504;2022-10-23T06:54:50;320.48;;;32.42;;
73938;SDS011;62291;47.554;8.504;2022-10-23T06:57:16;703.20;;;49.70;;
73938;SDS011;62291;47.554;8.504;2022-10-23T06:59:41;287.30;;;30.77;;
73938;SDS011;62291;47.554;8.504;2022-10-23T07:02:08;246.90;;;36.88;;
73938;SDS011;62291;47.554;8.504;2022-10-23T07:04:33;425.13;;;43.38;;
73938;SDS011;62291;47.554;8.504;2022-10-23T07:06:59;341.67;;;34.30;;
73938;SDS011;62291;47.554;8.504;2022-10-23T07:09:25;295.05;;;35.28;;
73938;SDS011;62291;47.554;8.504;2022-10-23T07:11:50;353.52;;;40.53;;
73938;SDS011;62291;47.554;8.504;2022-10-23T07:14:16;520.55;;;39.65;;
73938;SDS011;62291;47.554;8.504;2022-10-23T07:16:42;735.80;;;50.00;;
73938;SDS011;62291;47.554;8.504;2022-10-23T07:19:08;277.95;;;33.78;;
73938;SDS011;62291;47.554;8.504;2022-10-23T07:21:34;137.48;;;25.55;;
73938;SDS011;62291;47.554;8.504;2022-10-23T07:24:00;159.43;;;28.75;;
73938;SDS011;62291;47.554;8.504;2022-10-23T07:26:26;148.63;;;26.05;;
73938;SDS011;62291;47.554;8.504;2022-10-23T07:28:52;161.23;;;28.08;;
73938;SDS011;62291;47.554;8.504;2022-10-23T07:31:22;126.60;;;24.08;;
73938;SDS011;62291;47.554;8.504;2022-10-23T07:33:49;162.60;;;26.13;;
73938;SDS011;62291;47.554;8.504;2022-10-23T07:36:18;128.55;;;23.23;;
73938;SDS011;62291;47.554;8.504;2022-10-23T07:38:43;191.15;;;19.20;;
73938;SDS011;62291;47.554;8.504;2022-10-23T07:41:10;155.63;;;23.85;;
73938;SDS011;62291;47.554;8.504;2022-10-23T07:43:36;129.75;;;21.00;;
73938;SDS011;62291;47.554;8.504;2022-10-23T07:46:02;413.83;;;32.95;;
73938;SDS011;62291;47.554;8.504;2022-10-23T07:48:28;334.52;;;29.35;;
73938;SDS011;62291;47.554;8.504;2022-10-23T07:50:57;176.52;;;21.65;;
73938;SDS011;62291;47.554;8.504;2022-10-23T07:53:25;104.75;;;24.20;;
73938;SDS011;62291;47.554;8.504;2022-10-23T07:56:01;285.67;;;27.73;;
73938;SDS011;62291;47.554;8.504;2022-10-23T07:58:29;375.50;;;33.55;;
73938;SDS011;62291;47.554;8.504;2022-10-23T08:00:59;199.07;;;25.52;;
73938;SDS011;62291;47.554;8.504;2022-10-23T08:03:31;530.22;;;34.47;;
73938;SDS011;62291;47.554;8.504;2022-10-23T08:05:57;320.95;;;27.58;;
73938;SDS011;62291;47.554;8.504;2022-10-23T08:08:24;396.85;;;36.20;;
73938;SDS011;62291;47.554;8.504;2022-10-23T08:10:51;93.97;;;14.77;;
73938;SDS011;62291;47.554;8.504;2022-10-23T08:13:19;646.10;;;43.92;;
73938;SDS011;62291;47.554;8.504;2022-10-23T08:15:46;524.53;;;34.00;;
73938;SDS011;62291;47.554;8.504;2022-10-23T08:18:13;173.48;;;21.00;;
73938;SDS011;62291;47.554;8.504;2022-10-23T08:20:40;261.10;;;23.98;;
73938;SDS011;62291;47.554;8.504;2022-10-23T08:23:07;376.30;;;32.53;;
73938;SDS011;62291;47.554;8.504;2022-10-23T08:25:33;659.47;;;44.65;;
73938;SDS011;62291;47.554;8.504;2022-10-23T08:27:59;512.15;;;33.15;;
73938;SDS011;62291;47.554;8.504;2022-10-23T08:30:26;375.38;;;23.15;;
73938;SDS011;62291;47.554;8.504;2022-10-23T08:32:52;425.15;;;30.52;;
73938;SDS011;62291;47.554;8.504;2022-10-23T08:35:17;628.13;;;30.80;;
73938;SDS011;62291;47.554;8.504;2022-10-23T08:37:43;83.05;;;16.05;;
73938;SDS011;62291;47.554;8.504;2022-10-23T08:40:20;29.80;;;12.55;;
73938;SDS011;62291;47.554;8.504;2022-10-23T08:45:44;110.30;;;17.25;;
73938;SDS011;62291;47.554;8.504;2022-10-23T08:50:46;527.63;;;31.10;;
73938;SDS011;62291;47.554;8.504;2022-10-23T08:53:19;87.80;;;16.25;;
73938;SDS011;62291;47.554;8.504;2022-10-23T08:56:27;401.60;;;31.10;;
73938;SDS011;62291;47.554;8.504;2022-10-23T09:04:25;63.07;;;14.53;;
73938;SDS011;62291;47.554;8.504;2022-10-23T09:12:21;75.32;;;15.57;;
73938;SDS011;62291;47.554;8.504;2022-10-23T09:14:59;122.13;;;14.35;;
73938;SDS011;62291;47.554;8.504;2022-10-23T09:17:47;337.45;;;25.75;;
73938;SDS011;62291;47.554;8.504;2022-10-23T09:20:20;124.70;;;16.15;;
73938;SDS011;62291;47.554;8.504;2022-10-23T09:23:00;40.28;;;14.02;;
73938;SDS011;62291;47.554;8.504;2022-10-23T09:25:29;98.38;;;15.40;;
73938;SDS011;62291;47.554;8.504;2022-10-23T09:27:58;24.83;;;13.82;;
73938;SDS011;62291;47.554;8.504;2022-10-23T09:32:51;53.00;;;16.45;;
73938;SDS011;62291;47.554;8.504;2022-10-23T09:35:24;31.80;;;14.00;;
73938;SDS011;62291;47.554;8.504;2022-10-23T09:37:51;202.38;;;23.60;;
73938;SDS011;62291;47.554;8.504;2022-10-23T09:40:20;50.75;;;17.40;;
73938;SDS011;62291;47.554;8.504;2022-10-23T09:42:54;25.55;;;12.55;;
73938;SDS011;62291;47.554;8.504;2022-10-23T09:45:39;13.55;;;9.70;;
73938;SDS011;62291;47.554;8.504;2022-10-23T09:48:18;38.00;;;15.75;;
73938;SDS011;62291;47.554;8.504;2022-10-23T09:54:09;23.33;;;10.13;;
73938;SDS011;62291;47.554;8.504;2022-10-23T09:58:54;11.45;;;10.27;;
73938;SDS011;62291;47.554;8.504;2022-10-23T10:01:26;41.00;;;11.55;;
73938;SDS011;62291;47.554;8.504;2022-10-23T10:03:55;13.20;;;9.85;;
73938;SDS011;62291;47.554;8.504;2022-10-23T10:06:26;46.53;;;13.40;;
73938;SDS011;62291;47.554;8.504;2022-10-23T10:08:57;38.95;;;13.82;;
73938;SDS011;62291;47.554;8.504;2022-10-23T10:11:33;33.13;;;12.40;;
73938;SDS011;62291;47.554;8.504;2022-10-23T10:14:25;11.73;;;9.65;;
73938;SDS011;62291;47.554;8.504;2022-10-23T10:19:26;13.45;;;8.75;;
73938;SDS011;62291;47.554;8.504;2022-10-23T10:25:00;7.82;;;7.10;;
73938;SDS011;62291;47.554;8.504;2022-10-23T10:36:26;6.20;;;5.60;;
73938;SDS011;62291;47.554;8.504;2022-10-23T10:39:09;6.15;;;5.25;;
73938;SDS011;62291;47.554;8.504;2022-10-23T10:42:21;7.03;;;5.25;;
73938;SDS011;62291;47.554;8.504;2022-10-23T10:45:11;6.60;;;5.80;;
73938;SDS011;62291;47.554;8.504;2022-10-23T10:48:40;7.40;;;5.32;;
73938;SDS011;62291;47.554;8.504;2022-10-23T10:50:44;5.75;;;4.85;;
73938;SDS011;62291;47.554;8.504;2022-10-23T10:53:42;4.95;;;4.47;;
73938;SDS011;62291;47.554;8.504;2022-10-23T10:56:17;5.85;;;4.78;;
73938;SDS011;62291;47.554;8.504;2022-10-23T10:59:03;4.53;;;4.13;;
73938;SDS011;62291;47.554;8.504;2022-10-23T11:01:44;6.80;;;5.05;;
73938;SDS011;62291;47.554;8.504;2022-10-23T11:04:33;7.95;;;4.43;;
73938;SDS011;62291;47.554;8.504;2022-10-23T11:07:03;7.68;;;4.75;;
73938;SDS011;62291;47.554;8.504;2022-10-23T11:09:36;8.10;;;4.95;;
73938;SDS011;62291;47.554;8.504;2022-10-23T11:12:03;7.45;;;5.18;;
73938;SDS011;62291;47.554;8.504;2022-10-23T11:14:30;6.55;;;5.78;;
73938;SDS011;62291;47.554;8.504;2022-10-23T11:19:28;6.20;;;4.65;;
73938;SDS011;62291;47.554;8.504;2022-10-23T11:38:28;5.10;;;4.60;;
73938;SDS011;62291;47.554;8.504;2022-10-23T11:41:15;6.90;;;4.53;;
73938;SDS011;62291;47.554;8.504;2022-10-23T11:43:57;4.45;;;3.92;;
73938;SDS011;62291;47.554;8.504;2022-10-23T11:46:33;7.22;;;4.18;;
73938;SDS011;62291;47.554;8.504;2022-10-23T11:49:00;7.43;;;3.97;;
73938;SDS011;62291;47.554;8.504;2022-10-23T11:51:39;5.45;;;4.10;;
73938;SDS011;62291;47.554;8.504;2022-10-23T11:54:06;4.05;;;3.75;;
73938;SDS011;62291;47.554;8.504;2022-10-23T11:56:36;5.47;;;3.85;;
73938;SDS011;62291;47.554;8.504;2022-10-23T12:01:47;4.68;;;3.17;;
73938;SDS011;62291;47.554;8.504;2022-10-23T12:04:25;4.40;;;3.80;;
73938;SDS011;62291;47.554;8.504;2022-10-23T12:06:59;4.68;;;3.83;;
73938;SDS011;62291;47.554;8.504;2022-10-23T12:09:39;4.93;;;3.50;;
73938;SDS011;62291;47.554;8.504;2022-10-23T12:14:38;5.25;;;2.78;;
73938;SDS011;62291;47.554;8.504;2022-10-23T12:20:00;4.55;;;2.72;;
73938;SDS011;62291;47.554;8.504;2022-10-23T12:22:31;2.70;;;2.50;;
73938;SDS011;62291;47.554;8.504;2022-10-23T12:25:14;2.78;;;2.40;;
73938;SDS011;62291;47.554;8.504;2022-10-23T12:27:45;5.18;;;1.48;;
73938;SDS011;62291;47.554;8.504;2022-10-23T12:30:44;4.50;;;1.45;;
73938;SDS011;62291;47.554;8.504;2022-10-23T12:33:34;3.88;;;1.10;;
73938;SDS011;62291;47.554;8.504;2022-10-23T12:38:40;2.63;;;1.20;;
73938;SDS011;62291;47.554;8.504;2022-10-23T12:43:38;2.05;;;1.50;;
73938;SDS011;62291;47.554;8.504;2022-10-23T12:46:17;5.55;;;1.58;;
73938;SDS011;62291;47.554;8.504;2022-10-23T12:48:53;4.20;;;1.65;;
73938;SDS011;62291;47.554;8.504;2022-10-23T12:51:27;3.38;;;1.98;;
73938;SDS011;62291;47.554;8.504;2022-10-23T12:53:55;2.33;;;2.10;;
73938;SDS011;62291;47.554;8.504;2022-10-23T12:56:21;4.15;;;2.22;;
73938;SDS011;62291;47.554;8.504;2022-10-23T12:58:50;3.63;;;2.10;;
73938;SDS011;62291;47.554;8.504;2022-10-23T13:01:38;3.05;;;2.10;;
73938;SDS011;62291;47.554;8.504;2022-10-23T13:04:06;2.05;;;1.60;;
73938;SDS011;62291;47.554;8.504;2022-10-23T13:06:40;2.53;;;1.80;;
73938;SDS011;62291;47.554;8.504;2022-10-23T13:09:11;2.78;;;1.75;;
73938;SDS011;62291;47.554;8.504;2022-10-23T13:11:58;2.60;;;1.85;;
73938;SDS011;62291;47.554;8.504;2022-10-23T13:14:36;5.40;;;1.98;;
73938;SDS011;62291;47.554;8.504;2022-10-23T13:17:06;2.78;;;1.90;;
73938;SDS011;62291;47.554;8.504;2022-10-23T13:19:34;3.10;;;2.10;;
73938;SDS011;62291;47.554;8.504;2022-10-23T13:22:02;3.10;;;2.17;;
73938;SDS011;62291;47.554;8.504;2022-10-23T13:24:38;2.90;;;2.40;;
73938;SDS011;62291;47.554;8.504;2022-10-23T13:32:24;4.50;;;2.75;;
73938;SDS011;62291;47.554;8.504;2022-10-23T13:34:52;5.63;;;4.72;;
73938;SDS011;62291;47.554;8.504;2022-10-23T13:37:23;5.95;;;4.75;;
73938;SDS011;62291;47.554;8.504;2022-10-23T13:42:27;8.65;;;7.78;;
73938;SDS011;62291;47.554;8.504;2022-10-23T13:44:53;6.85;;;6.00;;
73938;SDS011;62291;47.554;8.504;2022-10-23T13:47:20;5.28;;;3.78;;
73938;SDS011;62291;47.554;8.504;2022-10-23T13:49:45;5.75;;;5.03;;
73938;SDS011;62291;47.554;8.504;2022-10-23T13:52:12;6.78;;;4.47;;
73938;SDS011;62291;47.554;8.504;2022-10-23T13:57:12;3.92;;;3.15;;
73938;SDS011;62291;47.554;8.504;2022-10-23T13:59:39;5.80;;;4.80;;
73938;SDS011;62291;47.554;8.504;2022-10-23T14:02:38;4.75;;;3.53;;
73938;SDS011;62291;47.554;8.504;2022-10-23T14:04:56;6.80;;;3.92;;
73938;SDS011;62291;47.554;8.504;2022-10-23T14:07:22;7.15;;;5.80;;
73938;SDS011;62291;47.554;8.504;2022-10-23T14:09:48;6.78;;;4.00;;
73938;SDS011;62291;47.554;8.504;2022-10-23T14:12:13;5.78;;;2.88;;
73938;SDS011;62291;47.554;8.504;2022-10-23T14:14:39;4.78;;;2.45;;
73938;SDS011;62291;47.554;8.504;2022-10-23T14:17:05;4.32;;;2.70;;
73938;SDS011;62291;47.554;8.504;2022-10-23T14:19:34;5.55;;;2.70;;
73938;SDS011;62291;47.554;8.504;2022-10-23T14:21:59;5.25;;;3.60;;
73938;SDS011;62291;47.554;8.504;2022-10-23T14:24:25;3.42;;;2.63;;
73938;SDS011;62291;47.554;8.504;2022-10-23T14:26:51;3.35;;;2.40;;
73938;SDS011;62291;47.554;8.504;2022-10-23T14:29:17;5.45;;;2.35;;
73938;SDS011;62291;47.554;8.504;2022-10-23T14:31:42;4.18;;;2.33;;
73938;SDS011;62291;47.554;8.504;2022-10-23T14:34:08;7.80;;;3.08;;
73938;SDS011;62291;47.554;8.504;2022-10-23T14:36:34;4.43;;;2.45;;
73938;SDS011;62291;47.554;8.504;2022-10-23T14:38:59;4.03;;;2.25;;
73938;SDS011;62291;47.554;8.504;2022-10-23T14:41:25;3.00;;;2.10;;
73938;SDS011;62291;47.554;8.504;2022-10-23T14:43:52;3.58;;;1.90;;
73938;SDS011;62291;47.554;8.504;2022-10-23T14:46:19;4.90;;;3.00;;
73938;SDS011;62291;47.554;8.504;2022-10-23T14:48:47;3.80;;;2.05;;
73938;SDS011;62291;47.554;8.504;2022-10-23T14:51:20;2.58;;;2.28;;
73938;SDS011;62291;47.554;8.504;2022-10-23T14:53:54;6.18;;;2.35;;
73938;SDS011;62291;47.554;8.504;2022-10-23T14:56:23;5.07;;;3.95;;
73938;SDS011;62291;47.554;8.504;2022-10-23T14:58:49;4.20;;;2.83;;
73938;SDS011;62291;47.554;8.504;2022-10-23T15:01:15;7.00;;;5.35;;
73938;SDS011;62291;47.554;8.504;2022-10-23T15:03:41;5.93;;;2.33;;
73938;SDS011;62291;47.554;8.504;2022-10-23T15:06:07;11.23;;;7.57;;
73938;SDS011;62291;47.554;8.504;2022-10-23T15:08:33;8.50;;;4.32;;
73938;SDS011;62291;47.554;8.504;2022-10-23T15:11:00;5.30;;;3.58;;
73938;SDS011;62291;47.554;8.504;2022-10-23T15:13:27;5.70;;;3.05;;
73938;SDS011;62291;47.554;8.504;2022-10-23T15:16:03;4.53;;;3.03;;
73938;SDS011;62291;47.554;8.504;2022-10-23T15:18:30;7.85;;;4.72;;
73938;SDS011;62291;47.554;8.504;2022-10-23T15:20:56;7.18;;;3.25;;
73938;SDS011;62291;47.554;8.504;2022-10-23T15:23:22;10.95;;;3.47;;
73938;SDS011;62291;47.554;8.504;2022-10-23T15:25:57;3.53;;;1.88;;
73938;SDS011;62291;47.554;8.504;2022-10-23T15:28:25;7.00;;;2.38;;
73938;SDS011;62291;47.554;8.504;2022-10-23T15:30:51;7.55;;;2.20;;
73938;SDS011;62291;47.554;8.504;2022-10-23T15:33:17;6.07;;;2.38;;
73938;SDS011;62291;47.554;8.504;2022-10-23T15:35:43;3.85;;;2.30;;
73938;SDS011;62291;47.554;8.504;2022-10-23T15:38:08;5.75;;;2.88;;
73938;SDS011;62291;47.554;8.504;2022-10-23T15:40:34;3.55;;;2.47;;
73938;SDS011;62291;47.554;8.504;2022-10-23T15:43:00;2.63;;;2.30;;
73938;SDS011;62291;47.554;8.504;2022-10-23T15:45:26;6.35;;;2.70;;
73938;SDS011;62291;47.554;8.504;2022-10-23T15:47:51;6.47;;;2.30;;
73938;SDS011;62291;47.554;8.504;2022-10-23T15:50:17;5.45;;;2.30;;
73938;SDS011;62291;47.554;8.504;2022-10-23T15:52:43;6.38;;;2.30;;
73938;SDS011;62291;47.554;8.504;2022-10-23T15:55:09;4.57;;;2.28;;
73938;SDS011;62291;47.554;8.504;2022-10-23T15:57:37;5.43;;;3.15;;
73938;SDS011;62291;47.554;8.504;2022-10-23T16:00:04;8.32;;;3.08;;
73938;SDS011;62291;47.554;8.504;2022-10-23T16:02:31;5.35;;;2.80;;
73938;SDS011;62291;47.554;8.504;2022-10-23T16:04:57;7.95;;;2.90;;
73938;SDS011;62291;47.554;8.504;2022-10-23T16:07:23;9.18;;;2.60;;
73938;SDS011;62291;47.554;8.504;2022-10-23T16:09:48;8.20;;;2.85;;
73938;SDS011;62291;47.554;8.504;2022-10-23T16:12:14;5.07;;;2.13;;
73938;SDS011;62291;47.554;8.504;2022-10-23T16:14:41;3.33;;;2.90;;
73938;SDS011;62291;47.554;8.504;2022-10-23T16:17:07;4.95;;;2.55;;
73938;SDS011;62291;47.554;8.504;2022-10-23T16:19:33;6.53;;;2.72;;
73938;SDS011;62291;47.554;8.504;2022-10-23T16:21:59;5.45;;;2.35;;
73938;SDS011;62291;47.554;8.504;2022-10-23T16:24:26;12.05;;;4.57;;
73938;SDS011;62291;47.554;8.504;2022-10-23T16:26:53;5.32;;;2.83;;
73938;SDS011;62291;47.554;8.504;2022-10-23T16:29:20;7.63;;;5.20;;
73938;SDS011;62291;47.554;8.504;2022-10-23T16:31:47;5.22;;;3.38;;